createdAt,value
2018-02-27T00:00:17.100Z,1014.15
2018-02-27T00:01:22.602Z,1014.10
2018-02-27T00:02:28.104Z,1014.11
2018-02-27T00:03:33.603Z,1014.10
2018-02-27T00:04:39.119Z,1014.16
2018-02-27T00:05:44.604Z,1014.10
2018-02-27T00:06:50.271Z,1014.09
2018-02-27T00:07:55.693Z,1014.10
2018-02-27T00:09:01.113Z,1014.10
2018-02-27T00:10:06.642Z,1014.06
2018-02-27T00:11:12.135Z,1014.06
2018-02-27T00:12:17.660Z,1014.12
2018-02-27T00:13:23.115Z,1014.12
2018-02-27T00:14:28.618Z,1014.10
2018-02-27T00:15:34.119Z,1014.04
2018-02-27T00:16:39.620Z,1014.09
2018-02-27T00:17:45.115Z,1014.10
2018-02-27T00:18:50.615Z,1014.14
2018-02-27T00:19:56.134Z,1014.10
2018-02-27T00:21:01.626Z,1014.09
2018-02-27T00:22:07.208Z,1014.13
2018-02-27T00:23:12.623Z,1014.10
2018-02-27T00:24:18.120Z,1014.12
2018-02-27T00:25:23.621Z,1014.11
2018-02-27T00:26:29.123Z,1014.12
2018-02-27T00:27:34.624Z,1014.15
2018-02-27T00:28:40.140Z,1014.15
2018-02-27T00:29:45.622Z,1014.15
2018-02-27T00:30:51.170Z,1014.17
2018-02-27T00:31:56.646Z,1014.19
2018-02-27T00:33:02.127Z,1014.20
2018-02-27T00:34:07.634Z,1014.15
2018-02-27T00:35:13.124Z,1014.19
2018-02-27T00:36:18.623Z,1014.17
2018-02-27T00:37:24.153Z,1014.18
2018-02-27T00:38:29.633Z,1014.22
2018-02-27T00:39:35.130Z,1014.23
2018-02-27T00:40:40.641Z,1014.21
2018-02-27T00:41:46.138Z,1014.21
2018-02-27T00:42:51.634Z,1014.19
2018-02-27T00:43:57.197Z,1014.20
2018-02-27T00:45:02.834Z,1014.21
2018-02-27T00:46:08.216Z,1014.23
2018-02-27T00:47:13.648Z,1014.26
2018-02-27T00:48:19.140Z,1014.21
2018-02-27T00:49:24.686Z,1014.23
2018-02-27T00:50:30.138Z,1014.21
2018-02-27T00:51:35.848Z,1014.23
2018-02-27T00:52:41.141Z,1014.25
2018-02-27T00:53:46.678Z,1014.24
2018-02-27T00:54:52.307Z,1014.25
2018-02-27T00:55:57.648Z,1014.25
2018-02-27T00:57:03.331Z,1014.28
2018-02-27T00:58:08.786Z,1014.27
2018-02-27T00:59:14.278Z,1014.25
2018-02-27T01:00:19.816Z,1014.23
2018-02-27T01:01:25.156Z,1014.25
2018-02-27T01:02:30.667Z,1014.24
2018-02-27T01:03:36.150Z,1014.24
2018-02-27T01:04:41.647Z,1014.19
2018-02-27T01:05:47.165Z,1014.16
2018-02-27T01:06:52.653Z,1014.17
2018-02-27T01:07:58.152Z,1014.16
2018-02-27T01:09:03.645Z,1014.14
2018-02-27T01:10:09.232Z,1014.15
2018-02-27T01:11:14.648Z,1014.12
2018-02-27T01:12:20.229Z,1014.15
2018-02-27T01:13:25.689Z,1014.14
2018-02-27T01:14:31.155Z,1014.11
2018-02-27T01:15:36.656Z,1014.14
2018-02-27T01:16:42.240Z,1014.10
2018-02-27T01:17:47.665Z,1014.08
2018-02-27T01:18:53.160Z,1014.03
2018-02-27T01:19:58.956Z,1014.02
2018-02-27T01:21:04.160Z,1014.05
2018-02-27T01:22:09.818Z,1014.02
2018-02-27T01:23:15.155Z,1014.02
2018-02-27T01:24:20.673Z,1013.99
2018-02-27T01:25:26.158Z,1014.00
2018-02-27T01:26:31.657Z,1014.01
2018-02-27T01:27:37.178Z,1013.98
2018-02-27T01:28:42.668Z,1013.99
2018-02-27T01:29:48.699Z,1014.00
2018-02-27T01:30:53.665Z,1013.99
2018-02-27T01:31:59.165Z,1014.06
2018-02-27T01:33:04.665Z,1014.06
2018-02-27T01:34:10.165Z,1014.02
2018-02-27T01:35:15.662Z,1014.01
2018-02-27T01:36:21.327Z,1013.96
2018-02-27T01:37:26.665Z,1014.01
2018-02-27T01:38:32.164Z,1013.99
2018-02-27T01:39:37.670Z,1014.00
2018-02-27T01:40:43.208Z,1013.99
2018-02-27T01:41:48.665Z,1013.99
2018-02-27T01:42:54.174Z,1013.95
2018-02-27T01:43:59.674Z,1013.97
2018-02-27T01:45:05.167Z,1013.91
2018-02-27T01:46:10.675Z,1013.90
2018-02-27T01:47:16.166Z,1013.86
2018-02-27T01:48:21.674Z,1013.86
2018-02-27T01:49:27.182Z,1013.87
2018-02-27T01:50:32.718Z,1013.81
2018-02-27T01:51:38.178Z,1013.83
2018-02-27T01:52:43.668Z,1013.84
2018-02-27T01:53:49.224Z,1013.78
2018-02-27T01:54:54.676Z,1013.79
2018-02-27T01:56:00.202Z,1013.81
2018-02-27T01:57:05.674Z,1013.80
2018-02-27T01:58:11.168Z,1013.77
2018-02-27T01:59:16.683Z,1013.83
2018-02-27T02:00:22.174Z,1013.84
2018-02-27T02:01:27.677Z,1013.80
2018-02-27T02:02:33.182Z,1013.77
2018-02-27T02:03:38.677Z,1013.79
2018-02-27T02:04:44.172Z,1013.80
2018-02-27T02:05:49.677Z,1013.77
2018-02-27T02:06:55.186Z,1013.75
2018-02-27T02:08:00.682Z,1013.74
2018-02-27T02:09:06.175Z,1013.78
2018-02-27T02:10:11.695Z,1013.72
2018-02-27T02:11:17.183Z,1013.73
2018-02-27T02:12:22.675Z,1013.70
2018-02-27T02:13:28.184Z,1013.70
2018-02-27T02:14:33.678Z,1013.67
2018-02-27T02:15:39.214Z,1013.64
2018-02-27T02:16:44.675Z,1013.69
2018-02-27T02:17:50.180Z,1013.62
2018-02-27T02:18:55.683Z,1013.64
2018-02-27T02:20:01.180Z,1013.61
2018-02-27T02:21:06.761Z,1013.58
2018-02-27T02:22:12.214Z,1013.55
2018-02-27T02:23:17.674Z,1013.54
2018-02-27T02:24:23.177Z,1013.54
2018-02-27T02:25:28.673Z,1013.53
2018-02-27T02:26:34.179Z,1013.50
2018-02-27T02:27:39.684Z,1013.50
2018-02-27T02:28:45.174Z,1013.46
2018-02-27T02:29:50.813Z,1013.43
2018-02-27T02:30:56.244Z,1013.40
2018-02-27T02:32:01.689Z,1013.42
2018-02-27T02:33:07.229Z,1013.37
2018-02-27T02:34:12.691Z,1013.38
2018-02-27T02:35:18.197Z,1013.36
2018-02-27T02:36:23.685Z,1013.32
2018-02-27T02:37:29.183Z,1013.33
2018-02-27T02:38:34.692Z,1013.33
2018-02-27T02:39:40.186Z,1013.29
2018-02-27T02:40:45.743Z,1013.32
2018-02-27T02:41:51.184Z,1013.33
2018-02-27T02:42:56.682Z,1013.33
2018-02-27T02:44:02.196Z,1013.35
2018-02-27T02:45:07.684Z,1013.35
2018-02-27T02:46:13.183Z,1013.39
2018-02-27T02:47:18.696Z,1013.32
2018-02-27T02:48:24.192Z,1013.36
2018-02-27T02:49:29.740Z,1013.31
2018-02-27T02:50:35.186Z,1013.35
2018-02-27T02:51:40.687Z,1013.34
2018-02-27T02:52:46.187Z,1013.32
2018-02-27T02:53:51.738Z,1013.35
2018-02-27T02:54:57.193Z,1013.33
2018-02-27T02:56:02.686Z,1013.33
2018-02-27T02:57:08.297Z,1013.32
2018-02-27T02:58:13.696Z,1013.34
2018-02-27T02:59:19.191Z,1013.31
2018-02-27T03:00:24.688Z,1013.30
2018-02-27T03:01:30.185Z,1013.32
2018-02-27T03:02:35.686Z,1013.27
2018-02-27T03:03:41.185Z,1013.27
2018-02-27T03:04:46.693Z,1013.26
2018-02-27T03:05:52.186Z,1013.28
2018-02-27T03:06:57.692Z,1013.24
2018-02-27T03:08:03.188Z,1013.25
2018-02-27T03:09:08.688Z,1013.23
2018-02-27T03:10:14.197Z,1013.22
2018-02-27T03:11:19.698Z,1013.23
2018-02-27T03:12:25.187Z,1013.22
2018-02-27T03:13:30.694Z,1013.22
2018-02-27T03:14:36.190Z,1013.20
2018-02-27T03:15:41.704Z,1013.17
2018-02-27T03:16:47.189Z,1013.15
2018-02-27T03:17:52.696Z,1013.18
2018-02-27T03:18:58.200Z,1013.19
2018-02-27T03:20:03.692Z,1013.17
2018-02-27T03:21:09.189Z,1013.16
2018-02-27T03:22:14.699Z,1013.11
2018-02-27T03:23:20.191Z,1013.09
2018-02-27T03:24:25.696Z,1013.12
2018-02-27T03:25:31.192Z,1013.13
2018-02-27T03:26:36.697Z,1013.09
2018-02-27T03:27:42.192Z,1013.12
2018-02-27T03:28:47.690Z,1013.07
2018-02-27T03:29:53.197Z,1013.04
2018-02-27T03:30:58.706Z,1013.08
2018-02-27T03:32:04.193Z,1013.05
2018-02-27T03:33:09.696Z,1013.09
2018-02-27T03:34:15.200Z,1013.11
2018-02-27T03:35:20.693Z,1013.14
2018-02-27T03:36:26.199Z,1013.10
2018-02-27T03:37:31.698Z,1013.14
2018-02-27T03:38:37.195Z,1013.16
2018-02-27T03:39:42.724Z,1013.16
2018-02-27T03:40:48.196Z,1013.14
2018-02-27T03:41:53.694Z,1013.12
2018-02-27T03:42:59.237Z,1013.19
2018-02-27T03:44:04.706Z,1013.11
2018-02-27T03:45:10.219Z,1013.12
2018-02-27T03:46:15.700Z,1013.16
2018-02-27T03:47:21.194Z,1013.08
2018-02-27T03:48:26.697Z,1013.12
2018-02-27T03:49:32.215Z,1013.07
2018-02-27T03:50:37.699Z,1013.06
2018-02-27T03:51:43.194Z,1013.05
2018-02-27T03:52:48.695Z,1013.02
2018-02-27T03:53:54.194Z,1013.04
2018-02-27T03:54:59.701Z,1013.02
2018-02-27T03:56:05.201Z,1013.01
2018-02-27T03:57:10.710Z,1013.01
2018-02-27T03:58:16.198Z,1013.00
2018-02-27T03:59:21.712Z,1012.96
2018-02-27T04:00:27.194Z,1012.91
2018-02-27T04:01:32.694Z,1012.89
2018-02-27T04:02:38.201Z,1012.89
2018-02-27T04:03:43.702Z,1012.84
2018-02-27T04:04:49.202Z,1012.85
2018-02-27T04:05:54.698Z,1012.85
2018-02-27T04:07:00.198Z,1012.85
2018-02-27T04:08:05.697Z,1012.83
2018-02-27T04:09:11.206Z,1012.83
2018-02-27T04:10:16.698Z,1012.86
2018-02-27T04:11:22.202Z,1012.84
2018-02-27T04:12:27.696Z,1012.83
2018-02-27T04:13:33.203Z,1012.81
2018-02-27T04:14:38.696Z,1012.78
2018-02-27T04:15:44.196Z,1012.81
2018-02-27T04:16:49.720Z,1012.81
2018-02-27T04:17:55.196Z,1012.81
2018-02-27T04:19:00.700Z,1012.79
2018-02-27T04:20:06.196Z,1012.80
2018-02-27T04:21:11.700Z,1012.79
2018-02-27T04:22:17.201Z,1012.81
2018-02-27T04:23:22.700Z,1012.74
2018-02-27T04:24:28.211Z,1012.74
2018-02-27T04:25:33.701Z,1012.76
2018-02-27T04:26:39.198Z,1012.76
2018-02-27T04:27:44.702Z,1012.75
2018-02-27T04:28:50.201Z,1012.75
2018-02-27T04:29:55.702Z,1012.78
2018-02-27T04:31:01.204Z,1012.79
2018-02-27T04:32:06.695Z,1012.83
2018-02-27T04:33:12.199Z,1012.75
2018-02-27T04:34:17.697Z,1012.77
2018-02-27T04:35:23.200Z,1012.77
2018-02-27T04:36:28.702Z,1012.80
2018-02-27T04:37:34.200Z,1012.81
2018-02-27T04:38:39.709Z,1012.81
2018-02-27T04:39:45.202Z,1012.86
2018-02-27T04:40:50.699Z,1012.80
2018-02-27T04:41:56.202Z,1012.84
2018-02-27T04:43:01.700Z,1012.85
2018-02-27T04:44:07.198Z,1012.85
2018-02-27T04:45:12.699Z,1012.84
2018-02-27T04:46:18.195Z,1012.85
2018-02-27T04:47:23.702Z,1012.80
2018-02-27T04:48:29.224Z,1012.79
2018-02-27T04:49:34.694Z,1012.83
2018-02-27T04:50:40.197Z,1012.81
2018-02-27T04:51:45.703Z,1012.83
2018-02-27T04:52:51.197Z,1012.80
2018-02-27T04:53:56.710Z,1012.83
2018-02-27T04:55:02.207Z,1012.80
2018-02-27T04:56:07.705Z,1012.83
2018-02-27T04:57:13.206Z,1012.81
2018-02-27T04:58:18.695Z,1012.80
2018-02-27T04:59:24.196Z,1012.80
2018-02-27T05:00:29.695Z,1012.82
2018-02-27T05:01:35.196Z,1012.85
2018-02-27T05:02:40.706Z,1012.80
2018-02-27T05:03:46.236Z,1012.79
2018-02-27T05:04:51.717Z,1012.77
2018-02-27T05:05:57.193Z,1012.79
2018-02-27T05:07:02.696Z,1012.79
2018-02-27T05:08:08.195Z,1012.79
2018-02-27T05:09:13.694Z,1012.80
2018-02-27T05:10:19.194Z,1012.76
2018-02-27T05:11:24.698Z,1012.77
2018-02-27T05:12:30.197Z,1012.76
2018-02-27T05:13:35.695Z,1012.77
2018-02-27T05:14:41.197Z,1012.75
2018-02-27T05:15:46.695Z,1012.71
2018-02-27T05:16:52.202Z,1012.74
2018-02-27T05:17:57.694Z,1012.76
2018-02-27T05:19:03.199Z,1012.77
2018-02-27T05:20:08.715Z,1012.74
2018-02-27T05:21:14.380Z,1012.74
2018-02-27T05:22:19.693Z,1012.73
2018-02-27T05:23:25.189Z,1012.75
2018-02-27T05:24:30.711Z,1012.71
2018-02-27T05:25:36.191Z,1012.70
2018-02-27T05:26:41.694Z,1012.73
2018-02-27T05:27:47.195Z,1012.76
2018-02-27T05:28:52.766Z,1012.73
2018-02-27T05:29:58.192Z,1012.79
2018-02-27T05:31:03.693Z,1012.71
2018-02-27T05:32:09.191Z,1012.75
2018-02-27T05:33:14.687Z,1012.75
2018-02-27T05:34:20.194Z,1012.75
2018-02-27T05:35:25.699Z,1012.70
2018-02-27T05:36:31.195Z,1012.74
2018-02-27T05:37:36.693Z,1012.71
2018-02-27T05:38:42.198Z,1012.71
2018-02-27T05:39:47.689Z,1012.70
2018-02-27T05:40:53.216Z,1012.67
2018-02-27T05:41:58.693Z,1012.70
2018-02-27T05:43:04.193Z,1012.71
2018-02-27T05:44:09.686Z,1012.73
2018-02-27T05:45:15.187Z,1012.69
2018-02-27T05:46:20.681Z,1012.72
2018-02-27T05:47:26.185Z,1012.74
2018-02-27T05:48:31.688Z,1012.75
2018-02-27T05:49:37.187Z,1012.75
2018-02-27T05:50:42.682Z,1012.78
2018-02-27T05:51:48.182Z,1012.75
2018-02-27T05:52:53.683Z,1012.79
2018-02-27T05:53:59.191Z,1012.77
2018-02-27T05:55:04.683Z,1012.81
2018-02-27T05:56:10.188Z,1012.80
2018-02-27T05:57:15.696Z,1012.79
2018-02-27T05:58:21.186Z,1012.77
2018-02-27T05:59:26.688Z,1012.81
2018-02-27T06:00:32.181Z,1012.79
2018-02-27T06:01:37.686Z,1012.80
2018-02-27T06:02:43.186Z,1012.77
2018-02-27T06:03:48.682Z,1012.79
2018-02-27T06:04:54.223Z,1012.76
2018-02-27T06:05:59.695Z,1012.79
2018-02-27T06:07:05.179Z,1012.77
2018-02-27T06:08:10.680Z,1012.83
2018-02-27T06:09:16.179Z,1012.83
2018-02-27T06:10:21.684Z,1012.81
2018-02-27T06:11:27.184Z,1012.82
2018-02-27T06:12:32.679Z,1012.81
2018-02-27T06:13:38.172Z,1012.80
2018-02-27T06:14:43.672Z,1012.82
2018-02-27T06:15:49.187Z,1012.84
2018-02-27T06:16:54.675Z,1012.84
2018-02-27T06:18:00.176Z,1012.85
2018-02-27T06:19:05.675Z,1012.79
2018-02-27T06:20:11.185Z,1012.83
2018-02-27T06:21:16.677Z,1012.88
2018-02-27T06:22:22.172Z,1012.89
2018-02-27T06:23:27.674Z,1012.87
2018-02-27T06:24:33.174Z,1012.89
2018-02-27T06:25:38.675Z,1012.89
2018-02-27T06:26:44.171Z,1012.83
2018-02-27T06:27:49.682Z,1012.90
2018-02-27T06:28:55.167Z,1012.92
2018-02-27T06:30:00.668Z,1012.85
2018-02-27T06:31:06.173Z,1012.86
2018-02-27T06:32:11.675Z,1012.92
2018-02-27T06:33:17.170Z,1012.93
2018-02-27T06:34:22.667Z,1012.89
2018-02-27T06:35:28.166Z,1012.95
2018-02-27T06:36:33.670Z,1012.87
2018-02-27T06:37:39.175Z,1012.93
2018-02-27T06:38:44.695Z,1012.95
2018-02-27T06:39:50.167Z,1012.99
2018-02-27T06:40:55.671Z,1013.02
2018-02-27T06:42:01.163Z,1013.00
2018-02-27T06:43:06.667Z,1013.01
2018-02-27T06:44:12.220Z,1013.00
2018-02-27T06:45:17.677Z,1013.00
2018-02-27T06:46:23.173Z,1013.01
2018-02-27T06:47:28.665Z,1012.99
2018-02-27T06:48:34.164Z,1013.03
2018-02-27T06:49:39.665Z,1013.03
2018-02-27T06:50:45.169Z,1013.05
2018-02-27T06:51:50.665Z,1013.04
2018-02-27T06:52:56.164Z,1013.03
2018-02-27T06:54:01.663Z,1013.03
2018-02-27T06:55:07.165Z,1013.03
2018-02-27T06:56:12.665Z,1013.02
2018-02-27T06:57:18.167Z,1012.99
2018-02-27T06:58:23.660Z,1013.05
2018-02-27T06:59:29.175Z,1013.02
2018-02-27T07:00:34.664Z,1012.98
2018-02-27T07:01:40.167Z,1012.98
2018-02-27T07:02:45.660Z,1013.02
2018-02-27T07:03:51.165Z,1013.01
2018-02-27T07:04:56.662Z,1013.01
2018-02-27T07:06:02.167Z,1013.04
2018-02-27T07:07:07.667Z,1013.04
2018-02-27T07:08:13.180Z,1013.04
2018-02-27T07:09:18.665Z,1013.03
2018-02-27T07:10:24.158Z,1013.06
2018-02-27T07:11:29.694Z,1013.06
2018-02-27T07:12:35.161Z,1013.05
2018-02-27T07:13:40.662Z,1013.07
2018-02-27T07:14:46.166Z,1013.06
2018-02-27T07:15:51.665Z,1013.01
2018-02-27T07:16:57.161Z,1013.04
2018-02-27T07:18:02.659Z,1013.00
2018-02-27T07:19:08.164Z,1013.02
2018-02-27T07:20:13.661Z,1012.98
2018-02-27T07:21:19.161Z,1013.00
2018-02-27T07:22:24.667Z,1013.07
2018-02-27T07:23:30.162Z,1012.98
2018-02-27T07:24:35.657Z,1013.02
2018-02-27T07:25:41.161Z,1013.02
2018-02-27T07:26:46.657Z,1013.07
2018-02-27T07:27:52.171Z,1013.07
2018-02-27T07:28:57.669Z,1013.04
2018-02-27T07:30:03.158Z,1013.06
2018-02-27T07:31:08.676Z,1013.02
2018-02-27T07:32:14.166Z,1013.08
2018-02-27T07:33:19.669Z,1013.06
2018-02-27T07:34:25.168Z,1013.09
2018-02-27T07:35:30.661Z,1013.04
2018-02-27T07:36:36.158Z,1013.07
2018-02-27T07:37:41.659Z,1013.05
2018-02-27T07:38:47.171Z,1013.08
2018-02-27T07:39:52.661Z,1013.08
2018-02-27T07:40:58.164Z,1013.07
2018-02-27T07:42:03.655Z,1013.07
2018-02-27T07:43:09.154Z,1013.06
2018-02-27T07:44:14.659Z,1013.05
2018-02-27T07:45:20.154Z,1013.01
2018-02-27T07:46:25.656Z,1013.02
2018-02-27T07:47:31.154Z,1013.03
2018-02-27T07:48:36.661Z,1012.97
2018-02-27T07:49:42.165Z,1012.96
2018-02-27T07:50:47.664Z,1012.92
2018-02-27T07:51:53.152Z,1012.91
2018-02-27T07:52:58.946Z,1012.91
2018-02-27T07:54:04.180Z,1012.94
2018-02-27T07:55:09.771Z,1012.91
2018-02-27T07:56:15.214Z,1012.93
2018-02-27T07:57:20.665Z,1012.97
2018-02-27T07:58:26.152Z,1012.96
2018-02-27T07:59:31.658Z,1013.00
2018-02-27T08:00:37.150Z,1012.99
2018-02-27T08:01:42.656Z,1012.97
2018-02-27T08:02:48.156Z,1012.98
2018-02-27T08:03:53.651Z,1012.98
2018-02-27T08:04:59.177Z,1012.98
2018-02-27T08:06:04.661Z,1012.92
2018-02-27T08:07:10.149Z,1012.89
2018-02-27T08:08:15.656Z,1012.94
2018-02-27T08:09:21.149Z,1012.92
2018-02-27T08:10:26.654Z,1012.93
2018-02-27T08:11:32.153Z,1012.95
2018-02-27T08:12:37.647Z,1012.88
2018-02-27T08:13:43.146Z,1012.97
2018-02-27T08:14:48.650Z,1012.91
2018-02-27T08:15:54.154Z,1012.94
2018-02-27T08:16:59.647Z,1012.89
2018-02-27T08:18:05.149Z,1012.93
2018-02-27T08:19:10.655Z,1012.87
2018-02-27T08:20:16.145Z,1012.90
2018-02-27T08:21:21.681Z,1012.90
2018-02-27T08:22:27.153Z,1012.83
2018-02-27T08:23:32.657Z,1012.77
2018-02-27T08:24:38.143Z,1012.82
2018-02-27T08:25:43.650Z,1012.73
2018-02-27T08:26:49.204Z,1012.80
2018-02-27T08:27:54.650Z,1012.77
2018-02-27T08:29:00.154Z,1012.75
2018-02-27T08:30:05.662Z,1012.73
2018-02-27T08:31:11.144Z,1012.75
2018-02-27T08:32:16.651Z,1012.77
2018-02-27T08:33:22.152Z,1012.70
2018-02-27T08:34:27.643Z,1012.71
2018-02-27T08:35:33.145Z,1012.70
2018-02-27T08:36:38.646Z,1012.70
2018-02-27T08:37:44.150Z,1012.67
2018-02-27T08:38:49.649Z,1012.70
2018-02-27T08:39:55.157Z,1012.65
2018-02-27T08:41:00.654Z,1012.66
2018-02-27T08:42:06.164Z,1012.66
2018-02-27T08:43:11.647Z,1012.66
2018-02-27T08:44:17.180Z,1012.70
2018-02-27T08:45:22.645Z,1012.69
2018-02-27T08:46:28.149Z,1012.70
2018-02-27T08:47:33.646Z,1012.68
2018-02-27T08:48:39.152Z,1012.65
2018-02-27T08:49:44.649Z,1012.69
2018-02-27T08:50:50.151Z,1012.70
2018-02-27T08:51:55.650Z,1012.69
2018-02-27T08:53:01.152Z,1012.64
2018-02-27T08:54:06.648Z,1012.67
2018-02-27T08:55:12.156Z,1012.66
2018-02-27T08:56:17.655Z,1012.68
2018-02-27T08:57:23.154Z,1012.64
2018-02-27T08:58:28.652Z,1012.65
2018-02-27T08:59:34.151Z,1012.68
2018-02-27T09:00:39.654Z,1012.65
2018-02-27T09:01:45.151Z,1012.63
2018-02-27T09:02:50.651Z,1012.66
2018-02-27T09:03:56.148Z,1012.71
2018-02-27T09:05:01.654Z,1012.66
2018-02-27T09:06:07.156Z,1012.70
2018-02-27T09:07:12.655Z,1012.65
2018-02-27T09:08:18.153Z,1012.60
2018-02-27T09:09:23.653Z,1012.64
2018-02-27T09:10:29.153Z,1012.62
2018-02-27T09:11:34.664Z,1012.65
2018-02-27T09:12:40.159Z,1012.64
2018-02-27T09:13:45.658Z,1012.67
2018-02-27T09:14:51.161Z,1012.61
2018-02-27T09:15:56.660Z,1012.61
2018-02-27T09:17:02.156Z,1012.58
2018-02-27T09:18:07.657Z,1012.63
2018-02-27T09:19:13.244Z,1012.66
2018-02-27T09:20:18.668Z,1012.64
2018-02-27T09:21:24.159Z,1012.57
2018-02-27T09:22:29.668Z,1012.56
2018-02-27T09:23:35.178Z,1012.52
2018-02-27T09:24:40.666Z,1012.56
2018-02-27T09:25:46.164Z,1012.46
2018-02-27T09:26:51.672Z,1012.48
2018-02-27T09:27:57.175Z,1012.39
2018-02-27T09:29:02.667Z,1012.38
2018-02-27T09:30:08.161Z,1012.40
2018-02-27T09:31:13.673Z,1012.37
2018-02-27T09:32:19.165Z,1012.39
2018-02-27T09:33:24.676Z,1012.39
2018-02-27T09:34:30.170Z,1012.33
2018-02-27T09:35:35.798Z,1012.36
2018-02-27T09:36:41.171Z,1012.35
2018-02-27T09:37:46.667Z,1012.33
2018-02-27T09:38:52.191Z,1012.33
2018-02-27T09:39:57.688Z,1012.27
2018-02-27T09:41:03.177Z,1012.37
2018-02-27T09:42:08.670Z,1012.34
2018-02-27T09:43:14.173Z,1012.31
2018-02-27T09:44:19.680Z,1012.23
2018-02-27T09:45:25.175Z,1012.27
2018-02-27T09:46:30.684Z,1012.25
2018-02-27T09:47:36.178Z,1012.31
2018-02-27T09:48:41.681Z,1012.30
2018-02-27T09:49:47.203Z,1012.26
2018-02-27T09:50:52.690Z,1012.29
2018-02-27T09:51:58.200Z,1012.26
2018-02-27T09:53:03.688Z,1012.28
2018-02-27T09:54:09.193Z,1012.33
2018-02-27T09:55:14.687Z,1012.27
2018-02-27T09:56:20.223Z,1012.31
2018-02-27T09:57:25.695Z,1012.27
2018-02-27T09:58:31.193Z,1012.34
2018-02-27T09:59:36.708Z,1012.32
2018-02-27T10:00:42.200Z,1012.24
2018-02-27T10:01:47.703Z,1012.25
2018-02-27T10:02:53.732Z,1012.25
2018-02-27T10:03:58.710Z,1012.23
2018-02-27T10:05:04.201Z,1012.22
2018-02-27T10:06:09.706Z,1012.23
2018-02-27T10:07:15.215Z,1012.23
2018-02-27T10:08:20.706Z,1012.18
2018-02-27T10:09:26.214Z,1012.14
2018-02-27T10:10:31.704Z,1012.19
2018-02-27T10:11:37.213Z,1012.15
2018-02-27T10:12:42.724Z,1012.18
2018-02-27T10:13:48.215Z,1012.20
2018-02-27T10:14:53.725Z,1012.17
2018-02-27T10:15:59.225Z,1012.12
2018-02-27T10:17:04.719Z,1012.11
2018-02-27T10:18:10.229Z,1012.09
2018-02-27T10:19:15.723Z,1012.09
2018-02-27T10:20:21.220Z,1012.08
2018-02-27T10:21:26.725Z,1012.10
2018-02-27T10:22:32.221Z,1012.07
2018-02-27T10:23:37.729Z,1012.10
2018-02-27T10:24:43.221Z,1012.10
2018-02-27T10:25:48.732Z,1012.03
2018-02-27T10:26:54.243Z,1012.05
2018-02-27T10:27:59.744Z,1012.03
2018-02-27T10:29:05.239Z,1012.06
2018-02-27T10:30:10.735Z,1012.01
2018-02-27T10:31:16.241Z,1012.06
2018-02-27T10:32:21.739Z,1012.08
2018-02-27T10:33:27.264Z,1012.11
2018-02-27T10:34:32.747Z,1012.00
2018-02-27T10:35:38.253Z,1012.00
2018-02-27T10:36:44.109Z,1012.05
2018-02-27T10:37:49.283Z,1012.02
2018-02-27T10:38:54.766Z,1011.98
2018-02-27T10:40:00.250Z,1012.02
2018-02-27T10:41:05.767Z,1012.02
2018-02-27T10:42:11.256Z,1012.05
2018-02-27T10:43:16.750Z,1012.00
2018-02-27T10:44:22.264Z,1012.05
2018-02-27T10:45:27.765Z,1012.00
2018-02-27T10:46:33.263Z,1012.04
2018-02-27T10:47:38.822Z,1012.06
2018-02-27T10:48:44.260Z,1012.02
2018-02-27T10:49:49.821Z,1012.00
2018-02-27T10:50:55.281Z,1011.96
2018-02-27T10:52:00.776Z,1012.00
2018-02-27T10:53:06.280Z,1011.92
2018-02-27T10:54:11.774Z,1011.89
2018-02-27T10:55:17.276Z,1011.96
2018-02-27T10:56:22.811Z,1011.97
2018-02-27T10:57:28.276Z,1011.92
2018-02-27T10:58:33.789Z,1011.93
2018-02-27T10:59:39.277Z,1011.87
2018-02-27T11:00:44.799Z,1011.83
2018-02-27T11:01:50.298Z,1011.82
2018-02-27T11:02:55.786Z,1011.93
2018-02-27T11:04:01.288Z,1011.87
2018-02-27T11:05:06.794Z,1011.82
2018-02-27T11:06:12.295Z,1011.91
2018-02-27T11:07:17.793Z,1011.82
2018-02-27T11:08:23.303Z,1011.83
2018-02-27T11:09:28.806Z,1011.81
2018-02-27T11:10:34.305Z,1011.81
2018-02-27T11:11:39.801Z,1011.86
2018-02-27T11:12:45.305Z,1011.87
2018-02-27T11:13:50.806Z,1011.80
2018-02-27T11:14:56.314Z,1011.72
2018-02-27T11:16:02.695Z,1011.78
2018-02-27T11:17:07.320Z,1011.81
2018-02-27T11:18:12.820Z,1011.86
2018-02-27T11:19:18.323Z,1011.87
2018-02-27T11:20:23.828Z,1011.83
2018-02-27T11:21:29.330Z,1011.75
2018-02-27T11:22:34.830Z,1011.68
2018-02-27T11:23:40.428Z,1011.70
2018-02-27T11:24:45.828Z,1011.75
2018-02-27T11:25:51.343Z,1011.68
2018-02-27T11:26:56.843Z,1011.66
2018-02-27T11:28:02.363Z,1011.69
2018-02-27T11:29:07.845Z,1011.67
2018-02-27T11:30:13.351Z,1011.69
2018-02-27T11:31:18.857Z,1011.66
2018-02-27T11:32:24.571Z,1011.64
2018-02-27T11:33:29.863Z,1011.59
2018-02-27T11:34:35.361Z,1011.57
2018-02-27T11:35:40.865Z,1011.61
2018-02-27T11:36:46.374Z,1011.57
2018-02-27T11:37:52.058Z,1011.57
2018-02-27T11:38:57.393Z,1011.59
2018-02-27T11:40:02.878Z,1011.60
2018-02-27T11:41:08.518Z,1011.57
2018-02-27T11:42:13.882Z,1011.55
2018-02-27T11:43:19.381Z,1011.53
2018-02-27T11:44:24.882Z,1011.52
2018-02-27T11:45:30.393Z,1011.52
2018-02-27T11:46:35.995Z,1011.50
2018-02-27T11:47:41.395Z,1011.49
2018-02-27T11:48:46.894Z,1011.48
2018-02-27T11:49:52.396Z,1011.43
2018-02-27T11:50:57.898Z,1011.46
2018-02-27T11:52:03.419Z,1011.44
2018-02-27T11:53:08.921Z,1011.37
2018-02-27T11:54:14.543Z,1011.39
2018-02-27T11:55:19.932Z,1011.37
2018-02-27T11:56:25.418Z,1011.39
2018-02-27T11:57:30.923Z,1011.35
2018-02-27T11:58:36.422Z,1011.42
2018-02-27T11:59:41.927Z,1011.30
2018-02-27T12:00:47.432Z,1011.40
2018-02-27T12:01:52.940Z,1011.38
2018-02-27T12:02:58.458Z,1011.36
2018-02-27T12:04:03.935Z,1011.36
2018-02-27T12:05:09.450Z,1011.35
2018-02-27T12:06:14.954Z,1011.39
2018-02-27T12:07:20.448Z,1011.32
2018-02-27T12:08:25.947Z,1011.31
2018-02-27T12:09:31.474Z,1011.33
2018-02-27T12:10:36.961Z,1011.28
2018-02-27T12:11:42.466Z,1011.30
2018-02-27T12:12:47.961Z,1011.30
2018-02-27T12:13:53.465Z,1011.23
2018-02-27T12:14:59.061Z,1011.23
2018-02-27T12:16:04.472Z,1011.23
2018-02-27T12:17:09.978Z,1011.20
2018-02-27T12:18:15.477Z,1011.20
2018-02-27T12:19:20.989Z,1011.22
2018-02-27T12:20:26.491Z,1011.15
2018-02-27T12:21:31.990Z,1011.20
2018-02-27T12:22:37.523Z,1011.09
2018-02-27T12:23:42.997Z,1011.13
2018-02-27T12:24:48.526Z,1011.18
2018-02-27T12:25:54.006Z,1011.15
2018-02-27T12:26:59.519Z,1011.12
2018-02-27T12:28:05.013Z,1011.18
2018-02-27T12:29:10.521Z,1011.11
2018-02-27T12:30:16.027Z,1011.07
2018-02-27T12:31:21.534Z,1011.00
2018-02-27T12:32:27.032Z,1011.00
2018-02-27T12:33:32.564Z,1011.02
2018-02-27T12:34:38.039Z,1011.02
2018-02-27T12:35:43.553Z,1011.00
2018-02-27T12:36:49.065Z,1011.04
2018-02-27T12:37:54.552Z,1011.05
2018-02-27T12:39:00.065Z,1011.05
2018-02-27T12:40:05.565Z,1011.01
2018-02-27T12:41:11.075Z,1010.97
2018-02-27T12:42:16.569Z,1010.97
2018-02-27T12:43:22.077Z,1010.94
2018-02-27T12:44:27.599Z,1010.94
2018-02-27T12:45:33.093Z,1010.96
2018-02-27T12:46:38.603Z,1010.98
2018-02-27T12:47:44.105Z,1010.90
2018-02-27T12:48:49.623Z,1010.95
2018-02-27T12:49:55.187Z,1010.93
2018-02-27T12:51:00.623Z,1010.95
2018-02-27T12:52:06.166Z,1010.89
2018-02-27T12:53:11.646Z,1010.90
2018-02-27T12:54:17.148Z,1010.89
2018-02-27T12:55:22.659Z,1010.98
2018-02-27T12:56:28.170Z,1010.92
2018-02-27T12:57:33.672Z,1010.95
2018-02-27T12:58:39.182Z,1010.92
2018-02-27T12:59:44.693Z,1010.89
2018-02-27T13:00:50.251Z,1010.87
2018-02-27T13:01:55.726Z,1010.80
2018-02-27T13:03:01.331Z,1010.75
2018-02-27T13:04:06.753Z,1010.74
2018-02-27T13:05:12.259Z,1010.78
2018-02-27T13:06:17.764Z,1010.85
2018-02-27T13:07:23.283Z,1010.80
2018-02-27T13:08:28.812Z,1010.78
2018-02-27T13:09:34.334Z,1010.71
2018-02-27T13:10:39.815Z,1010.74
2018-02-27T13:11:45.339Z,1010.70